Terminal Aerodrome Forecast
Issued by NWS Detroit/Pontiac, MI

Home | Current Version | Previous Version | Text Only | Print | Product List | Glossary On
Versions: 1 2 3 4 5 6 7 8 9 10 11 12 13 14 15 16 17 18 19 20
000
FTUS43 KDTX 172104 AAA
TAFFNT
TAF AMD
KFNT 172104Z 1721/1818 23010KT P6SM SCT035 OVC100
     FM180100 20010KT 5SM -SHSN BKN025 OVC035
     FM180500 28010KT P6SM BKN030
     FM181000 25005KT P6SM SCT030
     FM181200 23007KT P6SM SCT250=

USA.gov is the U.S. government's official web portal to all federal, state and local government web resources and services.